Time;durP1;ratioP1;P1;durP2;ratioP2;P2;SDS_P1;SDS_P2;PMS_P1;PMS_P2;Temp;Humidity;BMP_temperature;BMP_pressure;BME280_temperature;BME280_humidity;BME280_pressure;Samples;Min_cycle;Max_cycle;Signal;HPM_P1;HPM_P2
2021/06/08 00:00:01;;;;;;;0.40;0.30;;;;;;;17.31;100.00;100756.09;4983528;28;20842;-53
2021/06/08 00:02:27;;;;;;;0.40;0.20;;;;;;;17.22;100.00;100754.72;4991231;28;20819;-53
2021/06/08 00:04:54;;;;;;;0.40;0.30;;;;;;;17.24;100.00;100754.66;4983454;28;20858;-53
2021/06/08 00:07:21;;;;;;;0.40;0.20;;;;;;;17.28;100.00;100749.06;4987335;28;20458;-53
2021/06/08 00:09:47;;;;;;;1.33;1.33;;;;;;;17.60;100.00;100750.16;4974334;28;20474;-54
2021/06/08 00:12:14;;;;;;;0.40;0.30;;;;;;;17.62;100.00;100747.38;4987387;28;20455;-53
2021/06/08 00:14:41;;;;;;;0.40;0.20;;;;;;;17.65;100.00;100749.91;4984979;28;20540;-54
2021/06/08 00:17:07;;;;;;;0.40;0.20;;;;;;;17.55;100.00;100754.91;4980512;28;20528;-53
2021/06/08 00:19:34;;;;;;;0.40;0.30;;;;;;;17.34;100.00;100748.75;4982872;28;20888;-53
2021/06/08 00:22:01;;;;;;;0.40;0.20;;;;;;;17.49;100.00;100752.50;4986958;28;20454;-54
2021/06/08 00:24:27;;;;;;;3.13;1.03;;;;;;;17.38;100.00;100755.72;5000210;28;20867;-54
2021/06/08 00:26:54;;;;;;;0.40;0.20;;;;;;;17.41;100.00;100747.53;4989959;28;20453;-53
2021/06/08 00:29:21;;;;;;;2.10;2.00;;;;;;;17.28;100.00;100758.97;5005545;28;20497;-53
2021/06/08 00:31:47;;;;;;;0.40;0.20;;;;;;;17.49;100.00;100741.75;4988125;28;20489;-54
2021/06/08 00:34:14;;;;;;;0.40;0.20;;;;;;;17.66;100.00;100751.66;4972921;28;20454;-54
2021/06/08 00:36:41;;;;;;;0.57;0.53;;;;;;;17.44;100.00;100742.00;4992956;28;20779;-53
2021/06/08 00:39:08;;;;;;;0.40;0.30;;;;;;;17.49;100.00;100747.13;4981278;28;20482;-53
2021/06/08 00:41:42;;;;;;;0.40;0.30;;;;;;;17.31;100.00;100746.22;4986495;28;20458;-53
2021/06/08 00:44:13;;;;;;;0.40;0.20;;;;;;;17.30;100.00;100747.19;4986485;28;20419;-54
2021/06/08 00:46:41;;;;;;;0.40;0.20;;;;;;;17.30;100.00;100744.50;4981727;28;20476;-53
2021/06/08 00:49:07;;;;;;;0.40;0.20;;;;;;;17.31;100.00;100751.59;4979688;28;20448;-53
2021/06/08 00:51:34;;;;;;;0.40;0.20;;;;;;;17.41;100.00;100741.28;5000102;28;20455;-53
2021/06/08 00:54:10;;;;;;;0.40;0.20;;;;;;;17.92;100.00;100740.47;4986372;28;20795;-54
2021/06/08 00:56:39;;;;;;;0.93;0.93;;;;;;;17.81;100.00;100732.06;4976039;28;20501;-53
2021/06/08 00:59:06;;;;;;;0.40;0.20;;;;;;;17.93;100.00;100734.13;4986475;28;20477;-54
2021/06/08 01:01:34;;;;;;;0.40;0.20;;;;;;;18.22;100.00;100729.03;4983057;28;20485;-54
2021/06/08 01:04:02;;;;;;;0.40;0.20;;;;;;;17.95;100.00;100726.00;4979667;28;21074;-54
2021/06/08 01:06:34;;;;;;;0.40;0.30;;;;;;;17.85;100.00;100732.81;4982601;28;20529;-54
2021/06/08 01:09:05;;;;;;;1.17;1.17;;;;;;;17.91;100.00;100725.28;4986129;28;20478;-54
2021/06/08 01:11:34;;;;;;;0.47;0.40;;;;;;;17.66;100.00;100738.22;4984877;28;20453;-54
2021/06/08 01:14:01;;;;;;;0.40;0.30;;;;;;;17.49;100.00;100731.00;4979403;28;20453;-54
2021/06/08 01:16:29;;;;;;;0.40;0.20;;;;;;;17.28;100.00;100737.47;4980866;28;20466;-54
2021/06/08 01:18:56;;;;;;;0.40;0.20;;;;;;;17.15;100.00;100737.19;4986114;28;20984;-54
2021/06/08 01:21:23;;;;;;;0.40;0.33;;;;;;;17.18;100.00;100734.34;4985112;28;20578;-54
2021/06/08 01:23:50;;;;;;;0.40;0.30;;;;;;;17.21;100.00;100736.88;4979292;28;20504;-53
2021/06/08 01:26:17;;;;;;;0.40;0.20;;;;;;;17.15;100.00;100734.50;4989641;28;20555;-53
2021/06/08 01:28:46;;;;;;;0.43;0.30;;;;;;;17.06;100.00;100727.75;4987605;28;20468;-53
2021/06/08 01:31:20;;;;;;;0.40;0.27;;;;;;;17.03;100.00;100735.09;4996499;28;20453;-53
2021/06/08 01:33:47;;;;;;;0.40;0.30;;;;;;;17.00;100.00;100721.81;4981657;28;20456;-54
2021/06/08 01:36:19;;;;;;;0.40;0.30;;;;;;;16.94;100.00;100733.69;4980303;28;20508;-54
2021/06/08 01:38:49;;;;;;;0.50;0.50;;;;;;;16.94;100.00;100731.00;4983310;28;20525;-53
2021/06/08 01:41:25;;;;;;;0.40;0.30;;;;;;;16.75;100.00;100736.41;4986151;28;20454;-54
2021/06/08 01:43:53;;;;;;;0.43;0.37;;;;;;;16.64;100.00;100740.47;4983885;28;20452;-53
2021/06/08 01:46:21;;;;;;;0.40;0.20;;;;;;;16.59;100.00;100735.34;4979019;28;20485;-54
2021/06/08 01:48:49;;;;;;;0.40;0.20;;;;;;;16.57;100.00;100734.50;4980374;28;20471;-54
2021/06/08 01:51:47;;;;;;;0.40;0.40;;;;;;;16.51;100.00;100734.81;4991438;28;20818;-53
2021/06/08 01:54:40;;;;;;;0.40;0.20;;;;;;;16.39;100.00;100735.38;4977633;28;21115;-54
2021/06/08 01:57:13;;;;;;;0.40;0.30;;;;;;;16.51;100.00;100733.00;4991742;28;20508;-53
2021/06/08 01:59:52;;;;;;;0.40;0.20;;;;;;;16.40;100.00;100743.34;4980379;28;20481;-53
2021/06/08 02:02:26;;;;;;;0.40;0.30;;;;;;;16.35;100.00;100739.13;4979183;28;20493;-56
2021/06/08 02:05:07;;;;;;;0.50;0.33;;;;;;;16.34;100.00;100746.31;4981886;28;20490;-53
2021/06/08 02:07:43;;;;;;;0.40;0.20;;;;;;;16.34;100.00;100742.75;4986307;28;20978;-53
2021/06/08 02:10:32;;;;;;;0.40;0.20;;;;;;;16.26;100.00;100745.78;4989746;28;20511;-53
2021/06/08 02:13:31;;;;;;;0.40;0.20;;;;;;;16.16;100.00;100741.75;4986808;28;20900;-54
2021/06/08 02:16:31;;;;;;;0.50;0.30;;;;;;;16.07;100.00;100737.69;4987121;28;20446;-53
2021/06/08 02:18:58;;;;;;;0.93;0.93;;;;;;;15.99;100.00;100745.19;4989548;28;20474;-53
2021/06/08 02:21:30;;;;;;;0.40;0.30;;;;;;;15.94;100.00;100744.53;4988859;28;20435;-53
2021/06/08 02:23:58;;;;;;;3.70;1.07;;;;;;;16.04;100.00;100745.88;4988878;28;20450;-53
2021/06/08 02:26:26;;;;;;;0.40;0.20;;;;;;;16.17;100.00;100751.53;5000870;28;20525;-54
2021/06/08 02:28:55;;;;;;;0.40;0.20;;;;;;;16.13;100.00;100756.19;4992883;28;20472;-53
2021/06/08 02:31:23;;;;;;;8.23;2.30;;;;;;;15.98;100.00;100756.84;4997706;28;20512;-54
2021/06/08 02:33:52;;;;;;;0.40;0.20;;;;;;;16.11;100.00;100760.75;4991895;28;20457;-53
2021/06/08 02:36:19;;;;;;;0.40;0.20;;;;;;;15.96;100.00;100764.09;4995359;28;20464;-53
2021/06/08 02:38:48;;;;;;;0.40;0.20;;;;;;;16.09;100.00;100764.44;4985736;28;20452;-53
2021/06/08 02:41:16;;;;;;;0.40;0.20;;;;;;;16.12;100.00;100766.97;4979413;28;20525;-53
2021/06/08 02:43:44;;;;;;;0.40;0.20;;;;;;;16.23;100.00;100772.75;4984789;28;20951;-53
2021/06/08 02:46:12;;;;;;;0.40;0.20;;;;;;;16.37;100.00;100767.63;4989302;28;20525;-53
2021/06/08 02:48:40;;;;;;;0.50;0.40;;;;;;;16.27;100.00;100769.84;4987070;28;21016;-52
2021/06/08 02:51:08;;;;;;;0.50;0.40;;;;;;;16.24;100.00;100772.69;4984480;28;20500;-52
2021/06/08 02:53:36;;;;;;;13.03;3.27;;;;;;;16.30;100.00;100764.34;4983577;28;20956;-52
2021/06/08 02:56:05;;;;;;;0.40;0.20;;;;;;;16.28;100.00;100768.91;4988695;28;20476;-52
2021/06/08 02:58:34;;;;;;;0.40;0.20;;;;;;;16.33;100.00;100770.53;4988002;28;20459;-53
2021/06/08 03:01:04;;;;;;;0.40;0.20;;;;;;;16.41;100.00;100779.97;4981956;28;20521;-53
2021/06/08 03:03:35;;;;;;;1.80;1.03;;;;;;;16.40;100.00;100772.84;4981836;28;20470;-53
2021/06/08 03:06:07;;;;;;;0.60;0.60;;;;;;;16.43;100.00;100779.91;4987419;28;21023;-53
2021/06/08 03:08:58;;;;;;;0.40;0.20;;;;;;;16.46;100.00;100774.41;4988686;28;20500;-53
2021/06/08 03:11:37;;;;;;;0.40;0.30;;;;;;;16.52;100.00;100787.53;4987254;28;20476;-53
2021/06/08 03:14:07;;;;;;;0.40;0.30;;;;;;;16.61;100.00;100773.72;4988108;28;20479;-53
2021/06/08 03:16:37;;;;;;;0.50;0.30;;;;;;;16.58;100.00;100774.72;4988506;28;20796;-53
2021/06/08 03:19:08;;;;;;;0.40;0.20;;;;;;;16.58;100.00;100777.41;4983124;28;20469;-53
2021/06/08 03:21:41;;;;;;;3.13;3.03;;;;;;;16.58;100.00;100777.41;4981884;28;20560;-53
2021/06/08 03:24:13;;;;;;;0.40;0.20;;;;;;;16.67;100.00;100776.13;4985157;28;20885;-53
2021/06/08 03:26:43;;;;;;;0.40;0.20;;;;;;;16.57;100.00;100775.66;4987699;28;20609;-53
2021/06/08 03:29:12;;;;;;;2.20;2.10;;;;;;;16.61;100.00;100780.91;4985638;28;20444;-53
2021/06/08 03:31:43;;;;;;;0.40;0.27;;;;;;;16.75;100.00;100776.66;4989412;28;20487;-52
2021/06/08 03:34:15;;;;;;;0.40;0.20;;;;;;;16.78;100.00;100776.53;4986611;28;20501;-51
2021/06/08 03:36:48;;;;;;;0.50;0.40;;;;;;;16.79;100.00;100770.22;4980557;28;20841;-51
2021/06/08 03:39:16;;;;;;;0.40;0.30;;;;;;;16.72;100.00;100773.22;4981011;28;20470;-52
2021/06/08 03:41:45;;;;;;;0.40;0.20;;;;;;;16.68;100.00;100775.19;4987241;28;20985;-52
2021/06/08 03:44:13;;;;;;;0.50;0.40;;;;;;;16.71;100.00;100775.03;4988490;28;20947;-51
2021/06/08 03:46:40;;;;;;;0.50;0.40;;;;;;;16.70;100.00;100772.44;4983135;28;20493;-52
2021/06/08 03:49:07;;;;;;;0.40;0.30;;;;;;;16.73;100.00;100778.56;4981269;28;20470;-59
2021/06/08 03:51:35;;;;;;;0.40;0.30;;;;;;;16.95;100.00;100782.91;4987127;28;20459;-51
2021/06/08 03:54:02;;;;;;;0.40;0.20;;;;;;;16.83;100.00;100781.66;4987971;28;20511;-52
2021/06/08 03:56:29;;;;;;;0.40;0.20;;;;;;;16.78;100.00;100778.34;4977267;28;20454;-52
2021/06/08 03:58:57;;;;;;;0.40;0.20;;;;;;;16.93;100.00;100780.31;4987807;28;20474;-50
2021/06/08 04:01:24;;;;;;;0.40;0.20;;;;;;;16.87;100.00;100781.47;4983281;28;20875;-51
2021/06/08 04:03:52;;;;;;;0.50;0.50;;;;;;;16.80;100.00;100771.94;4980428;28;20857;-52
2021/06/08 04:06:20;;;;;;;0.40;0.30;;;;;;;16.86;100.00;100776.19;4984732;28;20851;-52
2021/06/08 04:08:48;;;;;;;0.40;0.20;;;;;;;17.01;100.00;100766.53;4987501;28;20532;-52
2021/06/08 04:11:20;;;;;;;0.40;0.20;;;;;;;17.13;100.00;100779.34;4983461;28;20464;-52
2021/06/08 04:13:47;;;;;;;0.40;0.20;;;;;;;17.10;100.00;100774.13;4980674;28;20454;-52
2021/06/08 04:16:13;;;;;;;0.40;0.30;;;;;;;17.04;100.00;100775.31;4983526;28;20509;-51
2021/06/08 04:18:41;;;;;;;0.40;0.20;;;;;;;17.13;100.00;100768.59;4987021;28;20471;-52
2021/06/08 04:21:08;;;;;;;0.50;0.50;;;;;;;17.13;100.00;100773.97;4985219;28;20607;-52
2021/06/08 04:23:36;;;;;;;0.40;0.30;;;;;;;17.05;100.00;100770.78;4980398;28;20512;-52
2021/06/08 04:26:04;;;;;;;0.40;0.20;;;;;;;16.93;100.00;100774.06;4990338;28;20485;-52
2021/06/08 04:28:30;;;;;;;0.40;0.20;;;;;;;16.96;100.00;100772.09;4986751;28;20468;-52
2021/06/08 04:30:57;;;;;;;0.40;0.20;;;;;;;17.12;100.00;100775.78;5001204;28;20456;-51
2021/06/08 04:33:26;;;;;;;0.40;0.20;;;;;;;17.38;100.00;100779.03;4980619;28;20449;-50
2021/06/08 04:35:54;;;;;;;0.50;0.47;;;;;;;17.33;100.00;100773.91;4981959;28;20447;-52
2021/06/08 04:38:21;;;;;;;0.40;0.20;;;;;;;17.31;100.00;100774.91;4987945;28;20475;-52
2021/06/08 04:40:50;;;;;;;0.40;0.20;;;;;;;17.18;100.00;100780.00;4987064;28;20454;-52
2021/06/08 04:43:25;;;;;;;0.77;0.77;;;;;;;17.05;100.00;100779.72;4980849;28;20457;-52
2021/06/08 04:45:52;;;;;;;0.40;0.20;;;;;;;17.10;100.00;100782.19;4980773;28;20568;-52
2021/06/08 04:48:23;;;;;;;1.37;0.77;;;;;;;17.06;100.00;100788.66;4985928;28;20482;-52
2021/06/08 04:50:53;;;;;;;0.40;0.30;;;;;;;17.13;100.00;100790.09;4987399;28;20449;-52
2021/06/08 04:53:21;;;;;;;0.50;0.40;;;;;;;17.14;100.00;100795.41;4983251;28;20432;-52
2021/06/08 04:55:49;;;;;;;0.40;0.20;;;;;;;17.08;100.00;100784.94;4981181;28;21296;-52
2021/06/08 04:58:16;;;;;;;0.43;0.40;;;;;;;17.13;100.00;100782.94;4983270;28;20469;-52
2021/06/08 05:00:58;;;;;;;0.40;0.20;;;;;;;17.25;100.00;100791.31;4980509;28;20480;-52
2021/06/08 05:03:36;;;;;;;4.33;1.17;;;;;;;17.33;100.00;100794.53;4981437;28;20454;-53
2021/06/08 05:06:08;;;;;;;0.40;0.20;;;;;;;17.32;100.00;100798.16;4987349;28;20460;-52
2021/06/08 05:08:38;;;;;;;0.40;0.23;;;;;;;17.39;100.00;100802.28;4986540;28;20531;-52
2021/06/08 05:11:15;;;;;;;0.57;0.57;;;;;;;17.40;100.00;100799.50;4982360;28;20457;-52
2021/06/08 05:13:54;;;;;;;0.40;0.20;;;;;;;17.50;100.00;100797.25;4980182;28;20472;-51
2021/06/08 05:16:21;;;;;;;0.40;0.20;;;;;;;17.52;100.00;100802.56;4981703;28;20936;-51
2021/06/08 05:18:53;;;;;;;3.70;0.87;;;;;;;17.62;100.00;100798.47;4986799;28;20448;-52
2021/06/08 05:21:21;;;;;;;0.40;0.30;;;;;;;17.56;100.00;100801.47;4985812;28;20984;-52
2021/06/08 05:23:51;;;;;;;0.40;0.20;;;;;;;17.60;100.00;100806.63;4980128;28;20420;-52
2021/06/08 05:26:19;;;;;;;0.40;0.20;;;;;;;17.54;100.00;100801.53;4989660;28;20552;-52
2021/06/08 05:28:46;;;;;;;0.77;0.77;;;;;;;17.63;100.00;100800.22;4988435;28;20473;-52
2021/06/08 05:31:17;;;;;;;0.40;0.20;;;;;;;17.79;100.00;100803.91;4996788;28;20449;-53
2021/06/08 05:33:44;;;;;;;0.40;0.20;;;;;;;17.75;100.00;100802.31;4981956;28;20450;-52
2021/06/08 05:36:11;;;;;;;0.40;0.20;;;;;;;17.72;100.00;100806.03;4980827;28;20982;-52
2021/06/08 05:38:40;;;;;;;2.40;1.17;;;;;;;17.85;100.00;100808.13;4984321;28;20481;-52
2021/06/08 05:41:12;;;;;;;0.60;0.60;;;;;;;17.79;100.00;100801.22;4986455;28;20449;-52
2021/06/08 05:43:40;;;;;;;0.40;0.20;;;;;;;17.84;100.00;100806.38;4983422;28;20478;-53
2021/06/08 05:46:08;;;;;;;0.80;0.80;;;;;;;17.88;100.00;100795.38;4979466;28;20536;-52
2021/06/08 05:48:37;;;;;;;0.40;0.20;;;;;;;18.11;100.00;100798.72;4982353;28;20487;-52
2021/06/08 05:51:05;;;;;;;0.40;0.40;;;;;;;18.16;100.00;100804.72;4985423;28;20880;-52
2021/06/08 05:53:36;;;;;;;0.40;0.20;;;;;;;18.11;100.00;100798.72;4984109;28;20461;-52
2021/06/08 05:56:04;;;;;;;0.40;0.30;;;;;;;18.23;100.00;100798.97;4977816;28;20454;-52
2021/06/08 05:58:31;;;;;;;0.60;0.60;;;;;;;18.35;100.00;100802.81;4985219;28;20439;-52
2021/06/08 06:00:59;;;;;;;1.30;1.20;;;;;;;18.47;100.00;100796.78;4979595;28;20524;-52
2021/06/08 06:03:28;;;;;;;0.40;0.40;;;;;;;18.46;100.00;100800.44;4980828;28;20450;-52
2021/06/08 06:05:55;;;;;;;0.50;0.40;;;;;;;18.77;100.00;100796.13;4986411;28;20874;-52
2021/06/08 06:08:25;;;;;;;0.40;0.20;;;;;;;18.93;100.00;100794.34;4985895;28;20466;-52
2021/06/08 06:10:52;;;;;;;0.40;0.30;;;;;;;19.08;100.00;100796.19;4986517;28;20454;-52
2021/06/08 06:13:23;;;;;;;1.23;1.23;;;;;;;18.85;100.00;100792.06;4985883;28;20886;-52
2021/06/08 06:15:51;;;;;;;0.50;0.50;;;;;;;19.10;100.00;100796.97;4985975;28;20484;-52
2021/06/08 06:18:19;;;;;;;0.40;0.20;;;;;;;19.21;100.00;100793.69;4986085;28;20531;-53
2021/06/08 06:20:49;;;;;;;0.70;0.67;;;;;;;19.19;100.00;100792.91;4980599;28;20432;-52
2021/06/08 06:23:22;;;;;;;0.40;0.20;;;;;;;19.10;100.00;100802.34;4977953;28;20513;-52
2021/06/08 06:25:51;;;;;;;0.40;0.20;;;;;;;19.48;100.00;100807.44;4988178;28;20448;-53
2021/06/08 06:28:19;;;;;;;0.50;0.40;;;;;;;19.30;100.00;100814.72;4984097;28;20480;-52
2021/06/08 06:30:47;;;;;;;0.50;0.40;;;;;;;19.44;100.00;100804.00;5001390;28;20453;-52
2021/06/08 06:33:15;;;;;;;0.40;0.20;;;;;;;19.45;100.00;100805.75;4979201;28;20925;-53
2021/06/08 06:35:42;;;;;;;0.40;0.20;;;;;;;19.14;100.00;100808.44;4981559;28;20454;-53
2021/06/08 06:38:09;;;;;;;7.00;1.17;;;;;;;19.31;100.00;100812.88;4986640;28;20525;-53
2021/06/08 06:40:39;;;;;;;0.43;0.30;;;;;;;19.36;100.00;100817.06;4984777;28;20476;-52
2021/06/08 06:43:13;;;;;;;0.40;0.30;;;;;;;19.67;100.00;100815.34;4979219;28;20475;-53
2021/06/08 06:45:40;;;;;;;1.80;1.10;;;;;;;19.89;100.00;100817.69;4979644;28;20454;-53
2021/06/08 06:48:12;;;;;;;0.50;0.50;;;;;;;19.86;100.00;100825.94;4979258;28;20472;-52
2021/06/08 06:50:41;;;;;;;0.40;0.20;;;;;;;19.82;100.00;100827.94;4979466;28;20446;-53
2021/06/08 06:53:09;;;;;;;0.40;0.30;;;;;;;19.69;100.00;100829.63;4984707;28;20449;-53
2021/06/08 06:55:37;;;;;;;0.40;0.30;;;;;;;19.98;100.00;100825.22;4989512;28;20537;-53
2021/06/08 06:58:04;;;;;;;0.60;0.60;;;;;;;20.02;100.00;100826.78;4984487;28;20508;-53
2021/06/08 07:00:31;;;;;;;0.40;0.30;;;;;;;20.07;100.00;100832.78;4982540;28;20429;-53
2021/06/08 07:03:00;;;;;;;1.13;1.03;;;;;;;20.16;100.00;100825.97;4987783;28;20457;-53
2021/06/08 07:05:31;;;;;;;0.50;0.50;;;;;;;19.96;100.00;100817.22;4989254;28;20428;-53
2021/06/08 07:08:02;;;;;;;2.93;1.13;;;;;;;20.09;100.00;100812.81;4985357;28;20892;-53
2021/06/08 07:10:29;;;;;;;0.40;0.30;;;;;;;19.92;100.00;100823.75;4982434;28;20428;-52
2021/06/08 07:13:03;;;;;;;0.93;0.90;;;;;;;20.16;100.00;100820.56;4985900;28;20914;-53
2021/06/08 07:15:30;;;;;;;0.70;0.70;;;;;;;20.07;100.00;100827.38;4989325;28;20454;-53
2021/06/08 07:17:57;;;;;;;0.53;0.53;;;;;;;19.97;100.00;100820.78;4986869;28;21111;-52
2021/06/08 07:20:25;;;;;;;1.27;1.17;;;;;;;20.12;100.00;100819.88;4982287;28;20450;-53
2021/06/08 07:22:52;;;;;;;0.50;0.50;;;;;;;20.14;100.00;100817.94;4983835;28;20996;-53
2021/06/08 07:25:20;;;;;;;0.40;0.20;;;;;;;19.90;100.00;100814.88;4991210;28;20466;-52
2021/06/08 07:27:48;;;;;;;0.50;0.50;;;;;;;20.01;100.00;100819.63;4983403;28;20995;-52
2021/06/08 07:30:16;;;;;;;0.40;0.20;;;;;;;20.29;100.00;100818.88;5008081;28;20456;-53
2021/06/08 07:33:13;;;;;;;0.50;0.40;;;;;;;20.24;100.00;100816.44;4982307;28;20489;-53
2021/06/08 07:35:51;;;;;;;0.67;0.67;;;;;;;20.44;100.00;100823.38;4986199;28;20424;-53
2021/06/08 07:38:28;;;;;;;0.40;0.20;;;;;;;20.20;100.00;100817.59;4988457;28;21005;-53
2021/06/08 07:41:02;;;;;;;0.40;0.20;;;;;;;20.23;100.00;100813.81;4988498;28;20921;-52
2021/06/08 07:43:35;;;;;;;2.83;0.93;;;;;;;20.28;100.00;100820.69;4983445;28;20852;-53
2021/06/08 07:46:07;;;;;;;0.40;0.20;;;;;;;20.48;100.00;100822.22;4981622;28;20436;-52
2021/06/08 07:48:36;;;;;;;4.80;0.87;;;;;;;20.26;100.00;100824.44;4985248;28;20441;-53
2021/06/08 07:51:05;;;;;;;0.40;0.20;;;;;;;20.35;100.00;100827.47;4988443;28;20896;-53
2021/06/08 07:53:32;;;;;;;0.40;0.37;;;;;;;20.23;100.00;100827.31;4985785;28;20423;-52
2021/06/08 07:56:00;;;;;;;0.40;0.20;;;;;;;20.55;100.00;100826.25;4980944;28;20771;-53
2021/06/08 07:58:28;;;;;;;0.50;0.50;;;;;;;20.93;99.63;100831.13;4985977;28;20440;-53
2021/06/08 08:00:57;;;;;;;0.60;0.60;;;;;;;20.72;99.61;100832.47;4981672;28;20951;-52
2021/06/08 08:03:28;;;;;;;0.50;0.40;;;;;;;20.66;98.58;100836.41;4983305;28;20425;-53
2021/06/08 08:06:03;;;;;;;2.40;0.77;;;;;;;20.94;98.34;100830.16;4988068;28;20797;-53
2021/06/08 08:08:31;;;;;;;0.40;0.20;;;;;;;20.97;98.60;100832.69;4988218;28;20493;-52
2021/06/08 08:11:00;;;;;;;0.40;0.27;;;;;;;20.47;100.00;100825.00;4981946;28;20439;-52
2021/06/08 08:13:30;;;;;;;0.67;0.67;;;;;;;21.08;98.46;100824.75;4994264;28;20823;-53
2021/06/08 08:16:04;;;;;;;0.40;0.30;;;;;;;21.15;97.05;100830.66;4987558;28;20432;-53
2021/06/08 08:18:33;;;;;;;0.50;0.33;;;;;;;21.16;97.71;100832.38;4988531;28;20532;-53
2021/06/08 08:21:02;;;;;;;0.40;0.30;;;;;;;20.96;98.21;100831.78;4985126;28;20790;-53
2021/06/08 08:23:30;;;;;;;0.40;0.30;;;;;;;21.23;97.27;100836.41;4981425;28;20987;-52
2021/06/08 08:26:04;;;;;;;0.50;0.40;;;;;;;21.36;96.05;100832.00;4992970;28;20432;-53
2021/06/08 08:28:33;;;;;;;0.40;0.20;;;;;;;21.64;95.34;100830.19;4993340;28;20507;-53
2021/06/08 08:31:02;;;;;;;0.57;0.57;;;;;;;21.78;94.18;100828.28;4990294;28;20427;-53
2021/06/08 08:33:29;;;;;;;0.40;0.20;;;;;;;21.73;94.37;100835.88;4987563;28;20495;-52
2021/06/08 08:35:57;;;;;;;0.40;0.30;;;;;;;21.75;94.33;100827.63;4987319;28;20449;-52
2021/06/08 08:38:24;;;;;;;0.40;0.30;;;;;;;21.73;93.98;100826.88;4987610;28;20984;-52
2021/06/08 08:40:51;;;;;;;0.50;0.30;;;;;;;21.35;94.27;100816.72;4987982;28;20519;-52
2021/06/08 08:43:39;;;;;;;0.50;0.40;;;;;;;21.86;92.85;100815.13;4983482;28;20439;-53
2021/06/08 08:46:05;;;;;;;0.40;0.30;;;;;;;21.71;93.08;100821.56;4981138;28;20921;-52
2021/06/08 08:48:33;;;;;;;0.40;0.20;;;;;;;21.92;94.08;100821.09;4984046;28;20508;-52
2021/06/08 08:51:00;;;;;;;0.50;0.30;;;;;;;21.98;93.21;100823.41;4987191;28;20490;-52
2021/06/08 08:53:27;;;;;;;0.40;0.20;;;;;;;22.35;92.34;100810.97;4984033;28;20424;-53
2021/06/08 08:55:54;;;;;;;0.40;0.20;;;;;;;22.34;91.68;100820.94;4983180;28;20463;-53
2021/06/08 08:58:25;;;;;;;0.50;0.40;;;;;;;22.43;90.75;100819.41;4983260;28;20467;-53
2021/06/08 09:00:55;;;;;;;0.40;0.20;;;;;;;22.36;91.31;100818.13;4987098;28;20433;-53
2021/06/08 09:03:24;;;;;;;0.40;0.30;;;;;;;22.28;90.61;100815.94;4986141;28;20412;-52
2021/06/08 09:05:55;;;;;;;0.60;0.57;;;;;;;22.20;90.20;100815.56;4980587;28;20457;-53
2021/06/08 09:08:23;;;;;;;0.50;0.40;;;;;;;22.17;90.56;100823.91;4978755;28;20524;-53
2021/06/08 09:10:52;;;;;;;0.40;0.20;;;;;;;22.66;92.04;100820.53;4986518;28;20467;-53
2021/06/08 09:13:20;;;;;;;4.53;2.33;;;;;;;22.63;91.58;100818.91;4986768;28;20811;-53
2021/06/08 09:15:46;;;;;;;0.40;0.20;;;;;;;23.05;89.60;100816.84;4981089;28;20932;-53
2021/06/08 09:18:14;;;;;;;0.40;0.20;;;;;;;23.01;87.58;100816.19;4979427;28;20445;-54
2021/06/08 09:20:41;;;;;;;0.50;0.30;;;;;;;23.00;88.56;100822.59;4985618;28;20475;-53
2021/06/08 09:23:09;;;;;;;0.40;0.20;;;;;;;22.91;88.16;100808.84;4986485;28;20508;-53
2021/06/08 09:25:47;;;;;;;0.53;0.47;;;;;;;22.99;87.90;100812.72;4981300;28;20953;-53
2021/06/08 09:28:34;;;;;;;0.73;0.73;;;;;;;22.42;91.18;100815.84;4983174;28;20463;-53
2021/06/08 09:31:16;;;;;;;0.50;0.50;;;;;;;22.58;92.38;100821.03;5000147;28;20424;-53
2021/06/08 09:33:45;;;;;;;0.60;0.43;;;;;;;22.51;91.75;100821.59;4985062;28;20901;-53
2021/06/08 09:36:23;;;;;;;0.40;0.20;;;;;;;23.00;89.63;100814.44;4987926;28;20432;-53
2021/06/08 09:39:01;;;;;;;0.40;0.20;;;;;;;22.62;90.72;100813.59;4983059;28;20456;-53
2021/06/08 09:41:54;;;;;;;1.20;1.10;;;;;;;22.59;90.70;100817.38;4986270;28;20501;-53
2021/06/08 09:44:21;;;;;;;2.63;0.73;;;;;;;22.59;91.93;100817.38;4986178;28;20491;-53
2021/06/08 09:46:55;;;;;;;8.03;2.53;;;;;;;22.28;92.18;100810.50;4981951;28;20511;-52
2021/06/08 09:49:31;;;;;;;0.40;0.20;;;;;;;22.52;91.20;100805.22;4979417;28;20439;-53
2021/06/08 09:52:00;;;;;;;1.70;1.60;;;;;;;22.68;91.63;100807.72;4981381;28;20432;-53
2021/06/08 09:54:34;;;;;;;7.43;1.40;;;;;;;22.53;89.39;100804.25;4986235;28;20475;-53
2021/06/08 09:57:30;;;;;;;0.40;0.20;;;;;;;22.94;87.85;100795.94;4975951;28;20926;-53
2021/06/08 10:00:00;;;;;;;1.03;1.03;;;;;;;22.62;87.99;100805.47;4978271;28;20902;-53
2021/06/08 10:02:28;;;;;;;0.40;0.20;;;;;;;22.56;87.21;100803.16;4979289;28;20479;-53
2021/06/08 10:05:18;;;;;;;8.60;2.57;;;;;;;22.67;86.78;100804.16;4981684;28;20454;-53
2021/06/08 10:07:46;;;;;;;0.50;0.40;;;;;;;22.55;87.72;100804.16;4984953;28;20498;-53
2021/06/08 10:10:16;;;;;;;0.50;0.40;;;;;;;22.55;87.00;100805.00;4986121;28;20428;-53
2021/06/08 10:12:57;;;;;;;0.50;0.40;;;;;;;22.63;86.12;100805.34;4981641;28;20453;-53
2021/06/08 10:15:50;;;;;;;0.60;0.40;;;;;;;22.76;87.72;100810.78;4979440;28;20503;-53
2021/06/08 10:18:17;;;;;;;0.70;0.70;;;;;;;22.64;85.73;100812.50;4979260;28;20540;-53
2021/06/08 10:21:03;;;;;;;5.67;1.07;;;;;;;23.00;86.69;100811.75;4984546;28;20458;-53
2021/06/08 10:23:32;;;;;;;0.40;0.20;;;;;;;23.06;85.40;100810.44;4985910;28;20744;-53
2021/06/08 10:26:14;;;;;;;0.50;0.40;;;;;;;22.70;85.57;100808.47;4983913;28;20985;-52
2021/06/08 10:28:40;;;;;;;0.40;0.30;;;;;;;22.95;85.20;100803.09;4980264;28;20552;-53
2021/06/08 10:31:08;;;;;;;0.50;0.40;;;;;;;23.10;84.92;100801.09;4995742;28;20942;-53
2021/06/08 10:33:55;;;;;;;3.17;2.00;;;;;;;22.81;85.37;100802.31;4986673;28;20485;-53
2021/06/08 10:36:29;;;;;;;0.40;0.20;;;;;;;23.11;85.71;100802.84;4983670;28;20829;-53
2021/06/08 10:38:57;;;;;;;0.43;0.30;;;;;;;23.33;87.06;100802.16;4985592;28;20470;-53
2021/06/08 10:41:24;;;;;;;0.43;0.20;;;;;;;23.37;86.83;100791.91;4989735;28;20483;-53
2021/06/08 10:43:51;;;;;;;0.40;0.20;;;;;;;22.98;86.00;100789.28;4987856;28;20944;-53
2021/06/08 10:46:27;;;;;;;0.53;0.53;;;;;;;23.36;84.90;100788.34;4982662;28;20457;-52
2021/06/08 10:48:54;;;;;;;0.50;0.23;;;;;;;23.26;84.96;100792.72;4983240;28;20476;-53
2021/06/08 10:51:23;;;;;;;0.50;0.33;;;;;;;23.20;84.89;100794.03;4989242;28;20485;-53
2021/06/08 10:53:54;;;;;;;0.40;0.20;;;;;;;23.33;84.89;100794.88;4989493;28;20449;-53
2021/06/08 10:56:26;;;;;;;0.50;0.20;;;;;;;23.41;84.92;100791.56;4977708;28;20505;-53
2021/06/08 10:58:55;;;;;;;0.87;0.87;;;;;;;23.34;83.71;100791.19;4989113;28;20505;-52
2021/06/08 11:01:35;;;;;;;0.40;0.30;;;;;;;23.90;83.27;100788.78;4985033;28;20823;-53
2021/06/08 11:04:04;;;;;;;6.50;1.70;;;;;;;23.79;82.80;100787.88;4982715;28;20441;-53
2021/06/08 11:06:36;;;;;;;0.50;0.30;;;;;;;23.93;81.86;100788.56;4984491;28;20458;-53
2021/06/08 11:09:12;;;;;;;0.50;0.40;;;;;;;23.73;82.91;100780.22;4988896;28;20493;-53
2021/06/08 11:11:47;;;;;;;0.40;0.23;;;;;;;23.77;83.20;100776.28;4988181;28;20449;-53
2021/06/08 11:15:01;;;;;;;3.17;1.27;;;;;;;23.34;80.92;100783.03;4983725;28;20456;-53
2021/06/08 11:17:31;;;;;;;0.57;0.57;;;;;;;23.35;83.30;100782.06;4987705;28;20850;-53
2021/06/08 11:20:04;;;;;;;0.40;0.20;;;;;;;24.13;83.85;100783.47;4988926;28;20465;-53
2021/06/08 11:22:33;;;;;;;1.67;1.67;;;;;;;23.85;82.32;100777.44;4984821;28;20955;-52
2021/06/08 11:25:02;;;;;;;0.50;0.30;;;;;;;24.12;83.32;100778.97;4981947;28;20437;-60
2021/06/08 11:28:08;;;;;;;0.50;0.30;;;;;;;23.98;81.52;100780.03;4985747;28;20490;-53
2021/06/08 11:30:41;;;;;;;2.07;1.97;;;;;;;24.13;79.56;100773.47;4973835;28;20508;-54
2021/06/08 11:33:26;;;;;;;0.50;0.30;;;;;;;24.70;78.82;100772.63;4981991;28;20519;-54
2021/06/08 11:35:53;;;;;;;0.50;0.30;;;;;;;24.37;79.50;100770.69;4982280;28;20446;-54